Smithmill, Pennsylvania
Current Conditions -  °F | °C
As of 2:54 PM on Wednesday 17 Dec 2014 (Local Time) from KFIG Reporting Station
Light Snow Light Snow  
Wind Chill: 23°   Ceiling: 2900
Heat Index: 33°   Visibility: 4mi
Dew Point: 27°   Wind: 16mph
Humidity: 78%   Direction: 270°W
Pressure: 29.96"   Gusts: 24mph
Location:  40.77°N, 78.42°W
Report Text: KFIG 171954Z AUTO 27014G21KT 4SM -SN FEW020 BKN029 OVC039 01/M03 A2996 RMK AO2 RAB1855E1856UPB1856E05B44E46SNB46 SLP157 P0000 T00061028
Loading
Personal Weather Stations






























Interactive Weather Map New forecast layout! Learn more

10-Day Weather Forecast

Advertisements
Track Severe Weather on mobile